sensor_id;sensor_type;location;lat;lon;timestamp;P1;durP1;ratioP1;P2;durP2;ratioP2
34573;SDS011;20809;49.594;8.734;2022-07-10T00:00:40;5.85;;;5.35;;
34573;SDS011;20809;49.594;8.734;2022-07-10T00:03:41;5.50;;;4.90;;
34573;SDS011;20809;49.594;8.734;2022-07-10T00:06:44;6.03;;;5.43;;
34573;SDS011;20809;49.594;8.734;2022-07-10T00:09:46;4.90;;;4.50;;
34573;SDS011;20809;49.594;8.734;2022-07-10T00:12:48;5.33;;;4.93;;
34573;SDS011;20809;49.594;8.734;2022-07-10T00:15:50;6.10;;;5.53;;
34573;SDS011;20809;49.594;8.734;2022-07-10T00:18:50;5.67;;;5.10;;
34573;SDS011;20809;49.594;8.734;2022-07-10T00:21:54;5.60;;;5.10;;
34573;SDS011;20809;49.594;8.734;2022-07-10T00:24:55;6.13;;;4.73;;
34573;SDS011;20809;49.594;8.734;2022-07-10T00:30:57;6.33;;;5.73;;
34573;SDS011;20809;49.594;8.734;2022-07-10T00:33:58;6.63;;;6.03;;
34573;SDS011;20809;49.594;8.734;2022-07-10T00:36:59;7.32;;;6.07;;
34573;SDS011;20809;49.594;8.734;2022-07-10T00:40:00;6.82;;;6.15;;
34573;SDS011;20809;49.594;8.734;2022-07-10T00:43:01;6.47;;;5.90;;
34573;SDS011;20809;49.594;8.734;2022-07-10T00:46:02;7.63;;;6.13;;
34573;SDS011;20809;49.594;8.734;2022-07-10T00:49:02;6.43;;;5.82;;
34573;SDS011;20809;49.594;8.734;2022-07-10T00:52:05;22.65;;;9.15;;
34573;SDS011;20809;49.594;8.734;2022-07-10T00:59:04;8.13;;;6.75;;
34573;SDS011;20809;49.594;8.734;2022-07-10T01:02:06;6.53;;;5.97;;
34573;SDS011;20809;49.594;8.734;2022-07-10T01:05:07;7.80;;;5.32;;
34573;SDS011;20809;49.594;8.734;2022-07-10T01:08:09;6.00;;;5.40;;
34573;SDS011;20809;49.594;8.734;2022-07-10T01:11:10;5.38;;;4.85;;
34573;SDS011;20809;49.594;8.734;2022-07-10T01:14:11;5.22;;;4.82;;
34573;SDS011;20809;49.594;8.734;2022-07-10T01:17:14;5.20;;;4.80;;
34573;SDS011;20809;49.594;8.734;2022-07-10T01:20:15;6.82;;;5.40;;
34573;SDS011;20809;49.594;8.734;2022-07-10T01:23:16;5.88;;;5.28;;
34573;SDS011;20809;49.594;8.734;2022-07-10T01:26:17;5.60;;;5.07;;
34573;SDS011;20809;49.594;8.734;2022-07-10T01:29:18;7.10;;;5.63;;
34573;SDS011;20809;49.594;8.734;2022-07-10T01:32:21;5.68;;;5.15;;
34573;SDS011;20809;49.594;8.734;2022-07-10T01:35:22;6.15;;;5.55;;
34573;SDS011;20809;49.594;8.734;2022-07-10T01:38:23;6.07;;;5.20;;
34573;SDS011;20809;49.594;8.734;2022-07-10T01:41:25;5.50;;;5.00;;
34573;SDS011;20809;49.594;8.734;2022-07-10T01:44:26;5.45;;;5.00;;
34573;SDS011;20809;49.594;8.734;2022-07-10T01:47:27;5.38;;;4.53;;
34573;SDS011;20809;49.594;8.734;2022-07-10T01:50:28;3.97;;;3.50;;
34573;SDS011;20809;49.594;8.734;2022-07-10T01:53:29;4.00;;;3.65;;
34573;SDS011;20809;49.594;8.734;2022-07-10T01:56:30;3.45;;;3.15;;
34573;SDS011;20809;49.594;8.734;2022-07-10T01:59:31;4.72;;;3.90;;
34573;SDS011;20809;49.594;8.734;2022-07-10T02:02:32;3.75;;;3.38;;
34573;SDS011;20809;49.594;8.734;2022-07-10T02:05:33;5.22;;;3.45;;
34573;SDS011;20809;49.594;8.734;2022-07-10T02:08:34;3.70;;;2.70;;
34573;SDS011;20809;49.594;8.734;2022-07-10T02:11:35;4.28;;;3.38;;
34573;SDS011;20809;49.594;8.734;2022-07-10T02:14:36;5.13;;;3.03;;
34573;SDS011;20809;49.594;8.734;2022-07-10T02:17:37;4.22;;;2.50;;
34573;SDS011;20809;49.594;8.734;2022-07-10T02:20:38;3.00;;;2.70;;
34573;SDS011;20809;49.594;8.734;2022-07-10T02:26:41;4.00;;;3.70;;
34573;SDS011;20809;49.594;8.734;2022-07-10T02:29:42;4.10;;;3.72;;
34573;SDS011;20809;49.594;8.734;2022-07-10T02:32:43;5.45;;;3.92;;
34573;SDS011;20809;49.594;8.734;2022-07-10T02:35:44;5.40;;;3.47;;
34573;SDS011;20809;49.594;8.734;2022-07-10T02:38:45;3.08;;;2.88;;
34573;SDS011;20809;49.594;8.734;2022-07-10T02:41:46;4.07;;;2.58;;
34573;SDS011;20809;49.594;8.734;2022-07-10T02:44:46;2.92;;;2.65;;
34573;SDS011;20809;49.594;8.734;2022-07-10T02:47:48;2.70;;;2.50;;
34573;SDS011;20809;49.594;8.734;2022-07-10T02:50:49;3.22;;;2.40;;
34573;SDS011;20809;49.594;8.734;2022-07-10T02:56:51;4.83;;;2.00;;
34573;SDS011;20809;49.594;8.734;2022-07-10T02:59:53;5.63;;;2.38;;
34573;SDS011;20809;49.594;8.734;2022-07-10T03:02:54;2.53;;;2.05;;
34573;SDS011;20809;49.594;8.734;2022-07-10T03:05:56;1.70;;;1.60;;
34573;SDS011;20809;49.594;8.734;2022-07-10T03:08:57;2.50;;;2.30;;
34573;SDS011;20809;49.594;8.734;2022-07-10T03:11:58;3.58;;;3.28;;
34573;SDS011;20809;49.594;8.734;2022-07-10T03:15:00;4.05;;;2.95;;
34573;SDS011;20809;49.594;8.734;2022-07-10T03:18:02;3.92;;;3.50;;
34573;SDS011;20809;49.594;8.734;2022-07-10T03:21:04;3.28;;;2.95;;
34573;SDS011;20809;49.594;8.734;2022-07-10T03:27:09;3.50;;;3.20;;
34573;SDS011;20809;49.594;8.734;2022-07-10T03:30:10;9.23;;;4.57;;
34573;SDS011;20809;49.594;8.734;2022-07-10T03:33:11;3.80;;;2.95;;
34573;SDS011;20809;49.594;8.734;2022-07-10T03:36:12;3.28;;;2.97;;
34573;SDS011;20809;49.594;8.734;2022-07-10T03:39:13;4.80;;;2.70;;
34573;SDS011;20809;49.594;8.734;2022-07-10T03:42:14;6.07;;;3.22;;
34573;SDS011;20809;49.594;8.734;2022-07-10T03:45:15;3.05;;;2.83;;
34573;SDS011;20809;49.594;8.734;2022-07-10T03:48:16;9.93;;;4.00;;
34573;SDS011;20809;49.594;8.734;2022-07-10T03:51:20;2.95;;;2.17;;
34573;SDS011;20809;49.594;8.734;2022-07-10T03:54:21;2.10;;;2.00;;
34573;SDS011;20809;49.594;8.734;2022-07-10T03:57:24;2.67;;;2.47;;
34573;SDS011;20809;49.594;8.734;2022-07-10T04:00:43;2.40;;;2.20;;
34573;SDS011;20809;49.594;8.734;2022-07-10T04:03:45;3.33;;;2.75;;
34573;SDS011;20809;49.594;8.734;2022-07-10T04:06:50;3.22;;;2.92;;
34573;SDS011;20809;49.594;8.734;2022-07-10T04:09:56;2.75;;;2.45;;
34573;SDS011;20809;49.594;8.734;2022-07-10T04:13:04;3.38;;;2.70;;
34573;SDS011;20809;49.594;8.734;2022-07-10T04:16:09;2.78;;;2.58;;
34573;SDS011;20809;49.594;8.734;2022-07-10T04:19:13;3.03;;;2.38;;
34573;SDS011;20809;49.594;8.734;2022-07-10T04:22:14;4.28;;;2.65;;
34573;SDS011;20809;49.594;8.734;2022-07-10T04:25:16;1.55;;;1.40;;
34573;SDS011;20809;49.594;8.734;2022-07-10T04:28:20;3.65;;;1.30;;
34573;SDS011;20809;49.594;8.734;2022-07-10T04:31:23;1.83;;;1.15;;
34573;SDS011;20809;49.594;8.734;2022-07-10T04:34:25;2.28;;;1.27;;
34573;SDS011;20809;49.594;8.734;2022-07-10T04:37:29;2.97;;;1.73;;
34573;SDS011;20809;49.594;8.734;2022-07-10T04:40:30;3.78;;;1.77;;
34573;SDS011;20809;49.594;8.734;2022-07-10T04:46:32;3.03;;;1.20;;
34573;SDS011;20809;49.594;8.734;2022-07-10T04:49:34;1.67;;;1.10;;
34573;SDS011;20809;49.594;8.734;2022-07-10T04:52:41;1.90;;;1.02;;
34573;SDS011;20809;49.594;8.734;2022-07-10T04:55:50;2.08;;;1.30;;
34573;SDS011;20809;49.594;8.734;2022-07-10T04:58:52;2.58;;;1.48;;
34573;SDS011;20809;49.594;8.734;2022-07-10T05:01:53;2.28;;;0.80;;
34573;SDS011;20809;49.594;8.734;2022-07-10T05:07:59;3.72;;;0.95;;
34573;SDS011;20809;49.594;8.734;2022-07-10T05:11:00;3.75;;;0.90;;
34573;SDS011;20809;49.594;8.734;2022-07-10T05:14:05;0.95;;;0.80;;
34573;SDS011;20809;49.594;8.734;2022-07-10T05:17:09;4.93;;;1.08;;
34573;SDS011;20809;49.594;8.734;2022-07-10T05:20:12;2.35;;;1.30;;
34573;SDS011;20809;49.594;8.734;2022-07-10T05:23:13;7.07;;;1.27;;
34573;SDS011;20809;49.594;8.734;2022-07-10T05:29:16;5.53;;;0.90;;
34573;SDS011;20809;49.594;8.734;2022-07-10T05:32:16;3.30;;;0.82;;
34573;SDS011;20809;49.594;8.734;2022-07-10T05:35:25;1.45;;;0.93;;
34573;SDS011;20809;49.594;8.734;2022-07-10T05:38:26;2.58;;;1.23;;
34573;SDS011;20809;49.594;8.734;2022-07-10T05:41:27;5.70;;;1.60;;
34573;SDS011;20809;49.594;8.734;2022-07-10T05:44:28;1.77;;;0.95;;
34573;SDS011;20809;49.594;8.734;2022-07-10T05:47:29;3.20;;;0.80;;
34573;SDS011;20809;49.594;8.734;2022-07-10T05:50:30;2.90;;;0.77;;
34573;SDS011;20809;49.594;8.734;2022-07-10T05:53:32;1.35;;;0.70;;
34573;SDS011;20809;49.594;8.734;2022-07-10T05:56:37;3.70;;;0.95;;
34573;SDS011;20809;49.594;8.734;2022-07-10T05:59:38;2.85;;;0.60;;
34573;SDS011;20809;49.594;8.734;2022-07-10T06:02:39;4.18;;;1.25;;
34573;SDS011;20809;49.594;8.734;2022-07-10T06:05:40;1.92;;;1.08;;
34573;SDS011;20809;49.594;8.734;2022-07-10T06:11:43;2.20;;;0.82;;
34573;SDS011;20809;49.594;8.734;2022-07-10T06:14:46;3.40;;;1.08;;
34573;SDS011;20809;49.594;8.734;2022-07-10T06:17:56;3.60;;;1.95;;
34573;SDS011;20809;49.594;8.734;2022-07-10T06:20:58;4.00;;;1.00;;
34573;SDS011;20809;49.594;8.734;2022-07-10T06:23:58;0.73;;;0.70;;
34573;SDS011;20809;49.594;8.734;2022-07-10T06:27:00;2.63;;;0.85;;
34573;SDS011;20809;49.594;8.734;2022-07-10T06:30:02;1.73;;;0.77;;
34573;SDS011;20809;49.594;8.734;2022-07-10T06:33:03;3.63;;;0.77;;
34573;SDS011;20809;49.594;8.734;2022-07-10T06:36:05;1.30;;;0.90;;
34573;SDS011;20809;49.594;8.734;2022-07-10T06:39:18;2.63;;;0.77;;
34573;SDS011;20809;49.594;8.734;2022-07-10T06:42:23;3.25;;;0.70;;
34573;SDS011;20809;49.594;8.734;2022-07-10T06:45:24;4.25;;;0.77;;
34573;SDS011;20809;49.594;8.734;2022-07-10T06:48:25;8.25;;;1.00;;
34573;SDS011;20809;49.594;8.734;2022-07-10T06:51:27;2.95;;;1.02;;
34573;SDS011;20809;49.594;8.734;2022-07-10T06:54:29;1.63;;;0.70;;
34573;SDS011;20809;49.594;8.734;2022-07-10T06:57:30;4.78;;;1.13;;
34573;SDS011;20809;49.594;8.734;2022-07-10T07:00:35;1.35;;;0.73;;
34573;SDS011;20809;49.594;8.734;2022-07-10T07:03:36;1.83;;;0.50;;
34573;SDS011;20809;49.594;8.734;2022-07-10T07:06:38;1.25;;;1.10;;
34573;SDS011;20809;49.594;8.734;2022-07-10T07:09:40;0.98;;;0.68;;
34573;SDS011;20809;49.594;8.734;2022-07-10T07:12:42;1.75;;;0.50;;
34573;SDS011;20809;49.594;8.734;2022-07-10T07:15:46;0.38;;;0.38;;
34573;SDS011;20809;49.594;8.734;2022-07-10T07:18:57;5.35;;;0.47;;
34573;SDS011;20809;49.594;8.734;2022-07-10T07:25:18;3.65;;;0.40;;
34573;SDS011;20809;49.594;8.734;2022-07-10T07:28:19;1.88;;;0.52;;
34573;SDS011;20809;49.594;8.734;2022-07-10T07:31:21;3.30;;;1.13;;
34573;SDS011;20809;49.594;8.734;2022-07-10T07:34:23;0.80;;;0.30;;
34573;SDS011;20809;49.594;8.734;2022-07-10T07:37:37;1.70;;;0.60;;
34573;SDS011;20809;49.594;8.734;2022-07-10T07:40:39;1.58;;;0.50;;
34573;SDS011;20809;49.594;8.734;2022-07-10T07:43:41;1.67;;;0.40;;
34573;SDS011;20809;49.594;8.734;2022-07-10T07:46:42;0.93;;;0.70;;
34573;SDS011;20809;49.594;8.734;2022-07-10T07:49:43;2.20;;;0.50;;
34573;SDS011;20809;49.594;8.734;2022-07-10T07:52:47;3.67;;;0.73;;
34573;SDS011;20809;49.594;8.734;2022-07-10T07:55:52;4.05;;;0.40;;
34573;SDS011;20809;49.594;8.734;2022-07-10T07:58:53;1.92;;;0.50;;
34573;SDS011;20809;49.594;8.734;2022-07-10T08:02:16;2.30;;;0.50;;
34573;SDS011;20809;49.594;8.734;2022-07-10T08:05:22;0.50;;;0.40;;
34573;SDS011;20809;49.594;8.734;2022-07-10T08:11:24;2.73;;;0.60;;
34573;SDS011;20809;49.594;8.734;2022-07-10T08:14:25;1.15;;;0.52;;
34573;SDS011;20809;49.594;8.734;2022-07-10T08:17:29;2.20;;;0.60;;
34573;SDS011;20809;49.594;8.734;2022-07-10T08:23:44;0.93;;;0.50;;
34573;SDS011;20809;49.594;8.734;2022-07-10T08:26:47;1.17;;;0.30;;
34573;SDS011;20809;49.594;8.734;2022-07-10T08:29:54;1.55;;;0.70;;
34573;SDS011;20809;49.594;8.734;2022-07-10T08:32:56;1.35;;;0.30;;
34573;SDS011;20809;49.594;8.734;2022-07-10T08:35:57;1.10;;;0.43;;
34573;SDS011;20809;49.594;8.734;2022-07-10T08:39:00;5.05;;;0.70;;
34573;SDS011;20809;49.594;8.734;2022-07-10T08:45:14;0.63;;;0.50;;
34573;SDS011;20809;49.594;8.734;2022-07-10T08:48:19;4.35;;;0.60;;
34573;SDS011;20809;49.594;8.734;2022-07-10T08:51:24;2.08;;;0.50;;
34573;SDS011;20809;49.594;8.734;2022-07-10T08:54:49;4.07;;;1.30;;
34573;SDS011;20809;49.594;8.734;2022-07-10T08:57:54;1.05;;;0.38;;
34573;SDS011;20809;49.594;8.734;2022-07-10T09:01:07;0.95;;;0.30;;
34573;SDS011;20809;49.594;8.734;2022-07-10T09:04:42;1.48;;;0.40;;
34573;SDS011;20809;49.594;8.734;2022-07-10T09:07:36;1.38;;;0.73;;
34573;SDS011;20809;49.594;8.734;2022-07-10T09:10:38;2.15;;;0.65;;
34573;SDS011;20809;49.594;8.734;2022-07-10T09:13:51;2.90;;;0.80;;
34573;SDS011;20809;49.594;8.734;2022-07-10T09:16:57;1.90;;;0.75;;
34573;SDS011;20809;49.594;8.734;2022-07-10T09:19:58;1.50;;;0.45;;
34573;SDS011;20809;49.594;8.734;2022-07-10T09:26:16;2.60;;;0.57;;
34573;SDS011;20809;49.594;8.734;2022-07-10T09:29:18;2.55;;;0.85;;
34573;SDS011;20809;49.594;8.734;2022-07-10T09:32:19;1.42;;;0.35;;
34573;SDS011;20809;49.594;8.734;2022-07-10T09:35:22;1.45;;;0.52;;
34573;SDS011;20809;49.594;8.734;2022-07-10T09:38:50;1.48;;;0.55;;
34573;SDS011;20809;49.594;8.734;2022-07-10T09:41:52;1.13;;;0.30;;
34573;SDS011;20809;49.594;8.734;2022-07-10T09:45:26;1.48;;;0.40;;
34573;SDS011;20809;49.594;8.734;2022-07-10T09:48:23;1.67;;;0.35;;
34573;SDS011;20809;49.594;8.734;2022-07-10T09:51:24;1.55;;;0.50;;
34573;SDS011;20809;49.594;8.734;2022-07-10T09:54:29;0.38;;;0.32;;
34573;SDS011;20809;49.594;8.734;2022-07-10T09:57:30;2.47;;;0.60;;
34573;SDS011;20809;49.594;8.734;2022-07-10T10:00:41;3.57;;;0.53;;
34573;SDS011;20809;49.594;8.734;2022-07-10T10:03:45;1.88;;;0.98;;
34573;SDS011;20809;49.594;8.734;2022-07-10T10:06:52;2.05;;;0.40;;
34573;SDS011;20809;49.594;8.734;2022-07-10T10:10:00;2.92;;;0.40;;
34573;SDS011;20809;49.594;8.734;2022-07-10T10:13:07;2.45;;;0.50;;
34573;SDS011;20809;49.594;8.734;2022-07-10T10:16:12;0.88;;;0.40;;
34573;SDS011;20809;49.594;8.734;2022-07-10T10:19:14;1.08;;;0.40;;
34573;SDS011;20809;49.594;8.734;2022-07-10T10:22:36;2.97;;;0.52;;
34573;SDS011;20809;49.594;8.734;2022-07-10T10:25:44;1.70;;;0.47;;
34573;SDS011;20809;49.594;8.734;2022-07-10T10:28:45;1.70;;;0.55;;
34573;SDS011;20809;49.594;8.734;2022-07-10T10:31:46;1.45;;;1.00;;
34573;SDS011;20809;49.594;8.734;2022-07-10T10:34:48;1.75;;;0.50;;
34573;SDS011;20809;49.594;8.734;2022-07-10T10:37:55;1.02;;;0.40;;
34573;SDS011;20809;49.594;8.734;2022-07-10T10:41:21;4.78;;;0.90;;
34573;SDS011;20809;49.594;8.734;2022-07-10T10:44:27;1.60;;;0.40;;
34573;SDS011;20809;49.594;8.734;2022-07-10T10:47:56;1.73;;;1.35;;
34573;SDS011;20809;49.594;8.734;2022-07-10T10:51:01;1.70;;;0.43;;
34573;SDS011;20809;49.594;8.734;2022-07-10T10:54:08;0.85;;;0.43;;
34573;SDS011;20809;49.594;8.734;2022-07-10T10:57:33;1.80;;;0.55;;
34573;SDS011;20809;49.594;8.734;2022-07-10T11:00:36;0.98;;;0.50;;
34573;SDS011;20809;49.594;8.734;2022-07-10T11:03:41;0.95;;;0.40;;
34573;SDS011;20809;49.594;8.734;2022-07-10T11:07:04;2.40;;;0.43;;
34573;SDS011;20809;49.594;8.734;2022-07-10T11:13:51;1.30;;;0.68;;
34573;SDS011;20809;49.594;8.734;2022-07-10T11:17:00;3.83;;;1.15;;
34573;SDS011;20809;49.594;8.734;2022-07-10T11:20:01;1.60;;;0.40;;
34573;SDS011;20809;49.594;8.734;2022-07-10T11:29:59;2.30;;;0.50;;
34573;SDS011;20809;49.594;8.734;2022-07-10T11:36:10;3.05;;;0.68;;
34573;SDS011;20809;49.594;8.734;2022-07-10T11:39:13;3.05;;;0.50;;
34573;SDS011;20809;49.594;8.734;2022-07-10T11:42:14;0.63;;;0.47;;
34573;SDS011;20809;49.594;8.734;2022-07-10T11:48:29;2.38;;;0.50;;
34573;SDS011;20809;49.594;8.734;2022-07-10T11:51:40;1.05;;;0.50;;
34573;SDS011;20809;49.594;8.734;2022-07-10T11:54:41;1.95;;;0.60;;
34573;SDS011;20809;49.594;8.734;2022-07-10T11:57:44;1.13;;;0.50;;
34573;SDS011;20809;49.594;8.734;2022-07-10T12:01:01;2.15;;;0.68;;
34573;SDS011;20809;49.594;8.734;2022-07-10T12:04:06;2.97;;;0.52;;
34573;SDS011;20809;49.594;8.734;2022-07-10T12:07:08;1.80;;;0.40;;
34573;SDS011;20809;49.594;8.734;2022-07-10T12:10:09;2.33;;;0.50;;
34573;SDS011;20809;49.594;8.734;2022-07-10T12:13:11;2.10;;;0.70;;
34573;SDS011;20809;49.594;8.734;2022-07-10T12:16:12;1.23;;;0.50;;
34573;SDS011;20809;49.594;8.734;2022-07-10T12:19:14;1.83;;;0.50;;
34573;SDS011;20809;49.594;8.734;2022-07-10T12:22:17;3.42;;;0.55;;
34573;SDS011;20809;49.594;8.734;2022-07-10T12:25:18;1.98;;;0.73;;
34573;SDS011;20809;49.594;8.734;2022-07-10T12:28:19;2.05;;;0.68;;
34573;SDS011;20809;49.594;8.734;2022-07-10T12:31:23;2.85;;;0.70;;
34573;SDS011;20809;49.594;8.734;2022-07-10T12:34:39;2.88;;;0.60;;
34573;SDS011;20809;49.594;8.734;2022-07-10T12:37:49;1.75;;;0.50;;
34573;SDS011;20809;49.594;8.734;2022-07-10T12:40:51;2.55;;;1.13;;
34573;SDS011;20809;49.594;8.734;2022-07-10T12:44:07;2.78;;;0.60;;
34573;SDS011;20809;49.594;8.734;2022-07-10T12:50:11;1.48;;;0.70;;
34573;SDS011;20809;49.594;8.734;2022-07-10T12:53:13;0.57;;;0.50;;
34573;SDS011;20809;49.594;8.734;2022-07-10T12:56:27;1.25;;;0.50;;
34573;SDS011;20809;49.594;8.734;2022-07-10T12:59:32;1.13;;;0.60;;
34573;SDS011;20809;49.594;8.734;2022-07-10T13:02:35;3.13;;;1.05;;
34573;SDS011;20809;49.594;8.734;2022-07-10T13:05:41;2.58;;;1.02;;
34573;SDS011;20809;49.594;8.734;2022-07-10T13:08:45;2.20;;;0.50;;
34573;SDS011;20809;49.594;8.734;2022-07-10T13:11:47;1.85;;;0.93;;
34573;SDS011;20809;49.594;8.734;2022-07-10T13:14:48;1.70;;;0.63;;
34573;SDS011;20809;49.594;8.734;2022-07-10T13:17:49;2.60;;;1.95;;
34573;SDS011;20809;49.594;8.734;2022-07-10T13:20:54;4.93;;;0.80;;
34573;SDS011;20809;49.594;8.734;2022-07-10T13:23:58;1.30;;;0.60;;
34573;SDS011;20809;49.594;8.734;2022-07-10T13:26:59;1.75;;;0.50;;
34573;SDS011;20809;49.594;8.734;2022-07-10T13:30:00;0.73;;;0.60;;
34573;SDS011;20809;49.594;8.734;2022-07-10T13:33:01;1.48;;;0.60;;
34573;SDS011;20809;49.594;8.734;2022-07-10T13:36:02;4.00;;;0.88;;
34573;SDS011;20809;49.594;8.734;2022-07-10T13:39:04;2.15;;;0.90;;
34573;SDS011;20809;49.594;8.734;2022-07-10T13:42:05;4.97;;;1.90;;
34573;SDS011;20809;49.594;8.734;2022-07-10T13:45:06;1.48;;;0.60;;
34573;SDS011;20809;49.594;8.734;2022-07-10T13:48:11;2.80;;;0.68;;
34573;SDS011;20809;49.594;8.734;2022-07-10T13:51:13;4.32;;;1.00;;
34573;SDS011;20809;49.594;8.734;2022-07-10T13:54:14;4.80;;;0.65;;
34573;SDS011;20809;49.594;8.734;2022-07-10T13:57:14;2.35;;;0.95;;
34573;SDS011;20809;49.594;8.734;2022-07-10T14:00:15;4.53;;;0.43;;
34573;SDS011;20809;49.594;8.734;2022-07-10T14:03:16;3.15;;;1.83;;
34573;SDS011;20809;49.594;8.734;2022-07-10T14:06:17;3.90;;;0.68;;
34573;SDS011;20809;49.594;8.734;2022-07-10T14:09:18;2.55;;;0.75;;
34573;SDS011;20809;49.594;8.734;2022-07-10T14:12:18;1.55;;;0.80;;
34573;SDS011;20809;49.594;8.734;2022-07-10T14:15:19;4.22;;;0.90;;
34573;SDS011;20809;49.594;8.734;2022-07-10T14:18:20;2.75;;;0.60;;
34573;SDS011;20809;49.594;8.734;2022-07-10T14:21:41;1.85;;;0.80;;
34573;SDS011;20809;49.594;8.734;2022-07-10T14:24:42;2.60;;;0.75;;
34573;SDS011;20809;49.594;8.734;2022-07-10T14:27:43;1.50;;;0.63;;
34573;SDS011;20809;49.594;8.734;2022-07-10T14:30:44;3.78;;;1.52;;
34573;SDS011;20809;49.594;8.734;2022-07-10T14:33:44;1.60;;;0.40;;
34573;SDS011;20809;49.594;8.734;2022-07-10T14:36:45;0.93;;;0.50;;
34573;SDS011;20809;49.594;8.734;2022-07-10T14:39:46;1.42;;;0.50;;
34573;SDS011;20809;49.594;8.734;2022-07-10T14:42:47;2.72;;;0.75;;
34573;SDS011;20809;49.594;8.734;2022-07-10T14:45:48;1.10;;;0.50;;
34573;SDS011;20809;49.594;8.734;2022-07-10T14:48:50;1.92;;;0.55;;
34573;SDS011;20809;49.594;8.734;2022-07-10T14:51:51;3.88;;;1.83;;
34573;SDS011;20809;49.594;8.734;2022-07-10T14:54:52;1.40;;;0.70;;
34573;SDS011;20809;49.594;8.734;2022-07-10T14:57:53;1.15;;;0.90;;
34573;SDS011;20809;49.594;8.734;2022-07-10T15:00:53;0.80;;;0.57;;
34573;SDS011;20809;49.594;8.734;2022-07-10T15:03:54;2.85;;;0.85;;
34573;SDS011;20809;49.594;8.734;2022-07-10T15:06:57;1.08;;;0.50;;
34573;SDS011;20809;49.594;8.734;2022-07-10T15:09:58;0.50;;;0.50;;
34573;SDS011;20809;49.594;8.734;2022-07-10T15:12:59;3.38;;;0.50;;
34573;SDS011;20809;49.594;8.734;2022-07-10T15:16:00;1.25;;;0.30;;
34573;SDS011;20809;49.594;8.734;2022-07-10T15:19:01;2.33;;;0.55;;
34573;SDS011;20809;49.594;8.734;2022-07-10T15:22:02;1.35;;;0.50;;
34573;SDS011;20809;49.594;8.734;2022-07-10T15:25:02;1.90;;;0.45;;
34573;SDS011;20809;49.594;8.734;2022-07-10T15:28:03;2.00;;;0.45;;
34573;SDS011;20809;49.594;8.734;2022-07-10T15:31:05;0.60;;;0.55;;
34573;SDS011;20809;49.594;8.734;2022-07-10T15:34:07;3.08;;;0.50;;
34573;SDS011;20809;49.594;8.734;2022-07-10T15:37:09;1.08;;;0.50;;
34573;SDS011;20809;49.594;8.734;2022-07-10T15:40:10;0.80;;;0.32;;
34573;SDS011;20809;49.594;8.734;2022-07-10T15:43:11;1.83;;;0.50;;
34573;SDS011;20809;49.594;8.734;2022-07-10T15:46:11;1.10;;;0.45;;
34573;SDS011;20809;49.594;8.734;2022-07-10T15:49:14;2.67;;;0.50;;
34573;SDS011;20809;49.594;8.734;2022-07-10T15:52:14;1.98;;;0.65;;
34573;SDS011;20809;49.594;8.734;2022-07-10T15:55:15;1.08;;;0.30;;
34573;SDS011;20809;49.594;8.734;2022-07-10T15:58:16;0.63;;;0.30;;
34573;SDS011;20809;49.594;8.734;2022-07-10T16:01:17;0.57;;;0.40;;
34573;SDS011;20809;49.594;8.734;2022-07-10T16:04:21;1.02;;;0.40;;
34573;SDS011;20809;49.594;8.734;2022-07-10T16:07:23;0.40;;;0.40;;
34573;SDS011;20809;49.594;8.734;2022-07-10T16:10:23;0.43;;;0.38;;
34573;SDS011;20809;49.594;8.734;2022-07-10T16:13:24;1.90;;;0.40;;
34573;SDS011;20809;49.594;8.734;2022-07-10T16:16:25;2.90;;;0.45;;
34573;SDS011;20809;49.594;8.734;2022-07-10T16:19:26;1.60;;;0.50;;
34573;SDS011;20809;49.594;8.734;2022-07-10T16:22:27;0.38;;;0.30;;
34573;SDS011;20809;49.594;8.734;2022-07-10T16:25:28;0.88;;;0.43;;
34573;SDS011;20809;49.594;8.734;2022-07-10T16:28:47;0.85;;;0.50;;
34573;SDS011;20809;49.594;8.734;2022-07-10T16:31:50;0.40;;;0.40;;
34573;SDS011;20809;49.594;8.734;2022-07-10T16:34:51;1.98;;;0.40;;
34573;SDS011;20809;49.594;8.734;2022-07-10T16:37:52;0.75;;;0.70;;
34573;SDS011;20809;49.594;8.734;2022-07-10T16:40:57;1.48;;;0.40;;
34573;SDS011;20809;49.594;8.734;2022-07-10T16:43:57;1.92;;;0.50;;
34573;SDS011;20809;49.594;8.734;2022-07-10T16:46:58;0.68;;;0.38;;
34573;SDS011;20809;49.594;8.734;2022-07-10T16:49:59;0.45;;;0.45;;
34573;SDS011;20809;49.594;8.734;2022-07-10T16:53:00;2.30;;;0.30;;
34573;SDS011;20809;49.594;8.734;2022-07-10T16:56:01;1.83;;;0.50;;
34573;SDS011;20809;49.594;8.734;2022-07-10T16:59:02;1.98;;;0.52;;
34573;SDS011;20809;49.594;8.734;2022-07-10T17:02:03;0.93;;;0.60;;
34573;SDS011;20809;49.594;8.734;2022-07-10T17:05:04;1.58;;;0.93;;
34573;SDS011;20809;49.594;8.734;2022-07-10T17:08:06;0.82;;;0.52;;
34573;SDS011;20809;49.594;8.734;2022-07-10T17:11:09;0.98;;;0.70;;
34573;SDS011;20809;49.594;8.734;2022-07-10T17:14:10;0.93;;;0.45;;
34573;SDS011;20809;49.594;8.734;2022-07-10T17:17:11;1.00;;;0.50;;
34573;SDS011;20809;49.594;8.734;2022-07-10T17:20:12;2.42;;;0.50;;
34573;SDS011;20809;49.594;8.734;2022-07-10T17:26:14;1.10;;;0.43;;
34573;SDS011;20809;49.594;8.734;2022-07-10T17:29:15;3.28;;;0.70;;
34573;SDS011;20809;49.594;8.734;2022-07-10T17:32:16;2.70;;;0.70;;
34573;SDS011;20809;49.594;8.734;2022-07-10T17:35:17;0.80;;;0.68;;
34573;SDS011;20809;49.594;8.734;2022-07-10T17:38:18;2.30;;;0.43;;
34573;SDS011;20809;49.594;8.734;2022-07-10T17:41:20;0.82;;;0.38;;
34573;SDS011;20809;49.594;8.734;2022-07-10T17:44:20;0.20;;;0.20;;
34573;SDS011;20809;49.594;8.734;2022-07-10T17:47:21;0.77;;;0.30;;
34573;SDS011;20809;49.594;8.734;2022-07-10T17:50:25;0.35;;;0.30;;
34573;SDS011;20809;49.594;8.734;2022-07-10T17:53:27;0.40;;;0.30;;
34573;SDS011;20809;49.594;8.734;2022-07-10T17:56:29;1.10;;;0.20;;
34573;SDS011;20809;49.594;8.734;2022-07-10T17:59:29;0.40;;;0.40;;
34573;SDS011;20809;49.594;8.734;2022-07-10T18:02:30;0.50;;;0.40;;
34573;SDS011;20809;49.594;8.734;2022-07-10T18:05:33;0.50;;;0.50;;
34573;SDS011;20809;49.594;8.734;2022-07-10T18:08:34;0.40;;;0.40;;
34573;SDS011;20809;49.594;8.734;2022-07-10T18:11:35;0.47;;;0.47;;
34573;SDS011;20809;49.594;8.734;2022-07-10T18:14:36;2.55;;;1.25;;
34573;SDS011;20809;49.594;8.734;2022-07-10T18:17:37;0.60;;;0.60;;
34573;SDS011;20809;49.594;8.734;2022-07-10T18:20:38;0.93;;;0.75;;
34573;SDS011;20809;49.594;8.734;2022-07-10T18:23:39;2.38;;;0.80;;
34573;SDS011;20809;49.594;8.734;2022-07-10T18:26:40;2.58;;;0.85;;
34573;SDS011;20809;49.594;8.734;2022-07-10T18:29:41;0.85;;;0.77;;
34573;SDS011;20809;49.594;8.734;2022-07-10T18:32:42;1.27;;;1.15;;
34573;SDS011;20809;49.594;8.734;2022-07-10T18:36:01;1.17;;;1.02;;
34573;SDS011;20809;49.594;8.734;2022-07-10T18:39:03;1.23;;;1.13;;
34573;SDS011;20809;49.594;8.734;2022-07-10T18:42:06;1.30;;;1.20;;
34573;SDS011;20809;49.594;8.734;2022-07-10T18:45:07;1.55;;;1.23;;
34573;SDS011;20809;49.594;8.734;2022-07-10T18:48:08;1.88;;;1.08;;
34573;SDS011;20809;49.594;8.734;2022-07-10T18:51:09;2.38;;;1.25;;
34573;SDS011;20809;49.594;8.734;2022-07-10T18:54:10;1.10;;;1.00;;
34573;SDS011;20809;49.594;8.734;2022-07-10T18:57:11;2.97;;;1.30;;
34573;SDS011;20809;49.594;8.734;2022-07-10T19:00:13;1.35;;;1.17;;
34573;SDS011;20809;49.594;8.734;2022-07-10T19:06:15;5.20;;;2.13;;
34573;SDS011;20809;49.594;8.734;2022-07-10T19:09:16;1.75;;;1.20;;
34573;SDS011;20809;49.594;8.734;2022-07-10T19:12:17;3.13;;;1.30;;
34573;SDS011;20809;49.594;8.734;2022-07-10T19:15:18;2.05;;;1.40;;
34573;SDS011;20809;49.594;8.734;2022-07-10T19:18:18;1.50;;;1.20;;
34573;SDS011;20809;49.594;8.734;2022-07-10T19:21:19;1.73;;;1.23;;
34573;SDS011;20809;49.594;8.734;2022-07-10T19:24:20;1.42;;;1.33;;
34573;SDS011;20809;49.594;8.734;2022-07-10T19:27:22;1.75;;;1.60;;
34573;SDS011;20809;49.594;8.734;2022-07-10T19:30:23;1.55;;;1.40;;
34573;SDS011;20809;49.594;8.734;2022-07-10T19:33:23;1.48;;;1.38;;